sensor_id;sensor_type;location;lat;lon;timestamp;P1;durP1;ratioP1;P2;durP2;ratioP2
41468;SDS011;27206;47.032;15.484;2023-06-14T00:00:41;5.95;;;2.33;;
41468;SDS011;27206;47.032;15.484;2023-06-14T00:03:07;4.00;;;2.38;;
41468;SDS011;27206;47.032;15.484;2023-06-14T00:05:37;3.72;;;2.10;;
41468;SDS011;27206;47.032;15.484;2023-06-14T00:08:06;5.10;;;2.30;;
41468;SDS011;27206;47.032;15.484;2023-06-14T00:10:33;3.95;;;2.10;;
41468;SDS011;27206;47.032;15.484;2023-06-14T00:13:00;3.45;;;1.90;;
41468;SDS011;27206;47.032;15.484;2023-06-14T00:15:27;4.93;;;2.40;;
41468;SDS011;27206;47.032;15.484;2023-06-14T00:17:53;4.47;;;2.22;;
41468;SDS011;27206;47.032;15.484;2023-06-14T00:20:20;3.80;;;2.17;;
41468;SDS011;27206;47.032;15.484;2023-06-14T00:22:46;4.35;;;2.45;;
41468;SDS011;27206;47.032;15.484;2023-06-14T00:25:13;3.97;;;2.05;;
41468;SDS011;27206;47.032;15.484;2023-06-14T00:27:38;3.95;;;2.47;;
41468;SDS011;27206;47.032;15.484;2023-06-14T00:30:04;4.55;;;2.05;;
41468;SDS011;27206;47.032;15.484;2023-06-14T00:32:30;3.53;;;1.88;;
41468;SDS011;27206;47.032;15.484;2023-06-14T00:34:56;3.75;;;2.33;;
41468;SDS011;27206;47.032;15.484;2023-06-14T00:37:21;4.90;;;2.08;;
41468;SDS011;27206;47.032;15.484;2023-06-14T00:39:47;4.25;;;2.10;;
41468;SDS011;27206;47.032;15.484;2023-06-14T00:42:22;6.95;;;2.30;;
41468;SDS011;27206;47.032;15.484;2023-06-14T00:44:51;5.22;;;2.60;;
41468;SDS011;27206;47.032;15.484;2023-06-14T00:47:17;4.05;;;2.50;;
41468;SDS011;27206;47.032;15.484;2023-06-14T00:49:45;3.95;;;2.20;;
41468;SDS011;27206;47.032;15.484;2023-06-14T00:52:20;3.88;;;2.25;;
41468;SDS011;27206;47.032;15.484;2023-06-14T00:54:47;7.35;;;2.05;;
41468;SDS011;27206;47.032;15.484;2023-06-14T00:57:13;4.85;;;2.15;;
41468;SDS011;27206;47.032;15.484;2023-06-14T00:59:46;6.40;;;2.42;;
41468;SDS011;27206;47.032;15.484;2023-06-14T01:02:14;5.30;;;2.60;;
41468;SDS011;27206;47.032;15.484;2023-06-14T01:04:40;6.03;;;2.53;;
41468;SDS011;27206;47.032;15.484;2023-06-14T01:10:29;4.00;;;2.20;;
41468;SDS011;27206;47.032;15.484;2023-06-14T01:15:03;9.27;;;2.70;;
41468;SDS011;27206;47.032;15.484;2023-06-14T01:17:29;3.72;;;2.30;;
41468;SDS011;27206;47.032;15.484;2023-06-14T01:20:06;4.70;;;2.78;;
41468;SDS011;27206;47.032;15.484;2023-06-14T01:22:35;6.47;;;2.45;;
41468;SDS011;27206;47.032;15.484;2023-06-14T01:25:01;4.72;;;2.65;;
41468;SDS011;27206;47.032;15.484;2023-06-14T01:27:26;4.15;;;2.45;;
41468;SDS011;27206;47.032;15.484;2023-06-14T01:29:57;6.00;;;2.58;;
41468;SDS011;27206;47.032;15.484;2023-06-14T01:32:26;4.72;;;2.63;;
41468;SDS011;27206;47.032;15.484;2023-06-14T01:34:54;6.07;;;2.45;;
41468;SDS011;27206;47.032;15.484;2023-06-14T01:37:20;6.43;;;2.50;;
41468;SDS011;27206;47.032;15.484;2023-06-14T01:39:47;4.10;;;2.35;;
41468;SDS011;27206;47.032;15.484;2023-06-14T01:42:15;4.97;;;2.38;;
41468;SDS011;27206;47.032;15.484;2023-06-14T01:44:42;3.83;;;2.10;;
41468;SDS011;27206;47.032;15.484;2023-06-14T01:47:09;4.40;;;2.22;;
41468;SDS011;27206;47.032;15.484;2023-06-14T01:49:35;4.68;;;2.13;;
41468;SDS011;27206;47.032;15.484;2023-06-14T01:52:01;5.60;;;2.33;;
41468;SDS011;27206;47.032;15.484;2023-06-14T01:54:26;4.65;;;2.67;;
41468;SDS011;27206;47.032;15.484;2023-06-14T01:56:52;4.70;;;2.40;;
41468;SDS011;27206;47.032;15.484;2023-06-14T01:59:18;4.47;;;2.40;;
41468;SDS011;27206;47.032;15.484;2023-06-14T02:01:44;5.25;;;2.75;;
41468;SDS011;27206;47.032;15.484;2023-06-14T02:04:11;5.38;;;3.08;;
41468;SDS011;27206;47.032;15.484;2023-06-14T02:06:37;7.32;;;2.90;;
41468;SDS011;27206;47.032;15.484;2023-06-14T02:09:02;3.75;;;2.35;;
41468;SDS011;27206;47.032;15.484;2023-06-14T02:11:29;4.45;;;2.53;;
41468;SDS011;27206;47.032;15.484;2023-06-14T02:13:54;5.00;;;2.90;;
41468;SDS011;27206;47.032;15.484;2023-06-14T02:16:21;4.72;;;2.47;;
41468;SDS011;27206;47.032;15.484;2023-06-14T02:18:47;5.00;;;2.20;;
41468;SDS011;27206;47.032;15.484;2023-06-14T02:21:13;6.63;;;2.40;;
41468;SDS011;27206;47.032;15.484;2023-06-14T02:23:39;5.28;;;2.47;;
41468;SDS011;27206;47.032;15.484;2023-06-14T02:26:05;4.82;;;2.60;;
41468;SDS011;27206;47.032;15.484;2023-06-14T02:28:31;5.05;;;2.50;;
41468;SDS011;27206;47.032;15.484;2023-06-14T02:30:56;5.10;;;2.45;;
41468;SDS011;27206;47.032;15.484;2023-06-14T02:33:22;4.20;;;2.50;;
41468;SDS011;27206;47.032;15.484;2023-06-14T02:35:48;4.95;;;2.47;;
41468;SDS011;27206;47.032;15.484;2023-06-14T02:38:13;4.00;;;2.47;;
41468;SDS011;27206;47.032;15.484;2023-06-14T02:40:39;5.13;;;2.60;;
41468;SDS011;27206;47.032;15.484;2023-06-14T02:43:07;4.72;;;2.72;;
41468;SDS011;27206;47.032;15.484;2023-06-14T02:45:33;4.63;;;2.65;;
41468;SDS011;27206;47.032;15.484;2023-06-14T02:47:59;4.50;;;2.55;;
41468;SDS011;27206;47.032;15.484;2023-06-14T02:50:25;3.78;;;2.25;;
41468;SDS011;27206;47.032;15.484;2023-06-14T02:52:53;5.05;;;2.50;;
41468;SDS011;27206;47.032;15.484;2023-06-14T02:55:20;6.53;;;2.40;;
41468;SDS011;27206;47.032;15.484;2023-06-14T02:57:46;4.82;;;2.65;;
41468;SDS011;27206;47.032;15.484;2023-06-14T03:00:13;6.40;;;2.72;;
41468;SDS011;27206;47.032;15.484;2023-06-14T03:02:39;4.82;;;2.47;;
41468;SDS011;27206;47.032;15.484;2023-06-14T03:05:04;4.72;;;2.72;;
41468;SDS011;27206;47.032;15.484;2023-06-14T03:07:32;5.20;;;2.47;;
41468;SDS011;27206;47.032;15.484;2023-06-14T03:09:57;4.88;;;2.50;;
41468;SDS011;27206;47.032;15.484;2023-06-14T03:12:23;5.13;;;2.80;;
41468;SDS011;27206;47.032;15.484;2023-06-14T03:14:49;4.97;;;2.75;;
41468;SDS011;27206;47.032;15.484;2023-06-14T03:17:15;4.70;;;2.80;;
41468;SDS011;27206;47.032;15.484;2023-06-14T03:19:42;6.72;;;2.92;;
41468;SDS011;27206;47.032;15.484;2023-06-14T03:22:08;5.18;;;2.45;;
41468;SDS011;27206;47.032;15.484;2023-06-14T03:24:34;4.95;;;2.70;;
41468;SDS011;27206;47.032;15.484;2023-06-14T03:27:01;6.60;;;2.60;;
41468;SDS011;27206;47.032;15.484;2023-06-14T03:29:27;5.68;;;2.80;;
41468;SDS011;27206;47.032;15.484;2023-06-14T03:32:00;5.55;;;3.00;;
41468;SDS011;27206;47.032;15.484;2023-06-14T03:34:27;5.10;;;3.13;;
41468;SDS011;27206;47.032;15.484;2023-06-14T03:36:53;5.78;;;3.55;;
41468;SDS011;27206;47.032;15.484;2023-06-14T03:39:18;4.95;;;3.10;;
41468;SDS011;27206;47.032;15.484;2023-06-14T03:41:44;5.00;;;2.90;;
41468;SDS011;27206;47.032;15.484;2023-06-14T03:44:10;4.72;;;2.50;;
41468;SDS011;27206;47.032;15.484;2023-06-14T03:46:36;5.28;;;2.83;;
41468;SDS011;27206;47.032;15.484;2023-06-14T03:49:01;5.43;;;3.15;;
41468;SDS011;27206;47.032;15.484;2023-06-14T03:51:27;6.65;;;3.30;;
41468;SDS011;27206;47.032;15.484;2023-06-14T03:53:54;5.60;;;2.95;;
41468;SDS011;27206;47.032;15.484;2023-06-14T03:56:20;7.38;;;2.78;;
41468;SDS011;27206;47.032;15.484;2023-06-14T03:58:46;4.57;;;2.60;;
41468;SDS011;27206;47.032;15.484;2023-06-14T04:01:12;8.07;;;2.92;;
41468;SDS011;27206;47.032;15.484;2023-06-14T04:03:37;4.50;;;2.70;;
41468;SDS011;27206;47.032;15.484;2023-06-14T04:06:05;5.50;;;3.03;;
41468;SDS011;27206;47.032;15.484;2023-06-14T04:08:31;4.68;;;2.58;;
41468;SDS011;27206;47.032;15.484;2023-06-14T04:10:57;4.25;;;2.70;;
41468;SDS011;27206;47.032;15.484;2023-06-14T04:13:23;4.70;;;2.90;;
41468;SDS011;27206;47.032;15.484;2023-06-14T04:15:48;5.28;;;2.83;;
41468;SDS011;27206;47.032;15.484;2023-06-14T04:18:14;6.13;;;3.00;;
41468;SDS011;27206;47.032;15.484;2023-06-14T04:20:40;6.85;;;3.33;;
41468;SDS011;27206;47.032;15.484;2023-06-14T04:23:12;4.45;;;2.78;;
41468;SDS011;27206;47.032;15.484;2023-06-14T04:25:39;4.88;;;3.08;;
41468;SDS011;27206;47.032;15.484;2023-06-14T04:28:05;5.22;;;3.25;;
41468;SDS011;27206;47.032;15.484;2023-06-14T04:30:34;6.38;;;3.13;;
41468;SDS011;27206;47.032;15.484;2023-06-14T04:33:00;4.95;;;2.53;;
41468;SDS011;27206;47.032;15.484;2023-06-14T04:35:25;4.47;;;2.55;;
41468;SDS011;27206;47.032;15.484;2023-06-14T04:37:52;4.22;;;2.60;;
41468;SDS011;27206;47.032;15.484;2023-06-14T04:40:18;6.28;;;3.17;;
41468;SDS011;27206;47.032;15.484;2023-06-14T04:42:44;5.40;;;2.90;;
41468;SDS011;27206;47.032;15.484;2023-06-14T04:45:11;5.88;;;3.08;;
41468;SDS011;27206;47.032;15.484;2023-06-14T04:47:37;5.40;;;2.90;;
41468;SDS011;27206;47.032;15.484;2023-06-14T04:50:03;6.15;;;2.90;;
41468;SDS011;27206;47.032;15.484;2023-06-14T04:52:29;6.47;;;3.00;;
41468;SDS011;27206;47.032;15.484;2023-06-14T04:54:55;5.65;;;3.00;;
41468;SDS011;27206;47.032;15.484;2023-06-14T04:57:21;5.55;;;2.70;;
41468;SDS011;27206;47.032;15.484;2023-06-14T04:59:48;5.68;;;2.80;;
41468;SDS011;27206;47.032;15.484;2023-06-14T05:02:13;8.25;;;2.97;;
41468;SDS011;27206;47.032;15.484;2023-06-14T05:04:39;7.65;;;3.35;;
41468;SDS011;27206;47.032;15.484;2023-06-14T05:07:06;5.63;;;2.97;;
41468;SDS011;27206;47.032;15.484;2023-06-14T05:09:33;9.23;;;3.40;;
41468;SDS011;27206;47.032;15.484;2023-06-14T05:11:59;6.80;;;3.00;;
41468;SDS011;27206;47.032;15.484;2023-06-14T05:14:25;6.07;;;3.10;;
41468;SDS011;27206;47.032;15.484;2023-06-14T05:16:51;5.93;;;2.55;;
41468;SDS011;27206;47.032;15.484;2023-06-14T05:19:18;8.90;;;3.22;;
41468;SDS011;27206;47.032;15.484;2023-06-14T05:21:45;5.95;;;2.97;;
41468;SDS011;27206;47.032;15.484;2023-06-14T05:24:12;4.68;;;2.72;;
41468;SDS011;27206;47.032;15.484;2023-06-14T05:26:38;4.28;;;2.42;;
41468;SDS011;27206;47.032;15.484;2023-06-14T05:29:04;6.50;;;2.80;;
41468;SDS011;27206;47.032;15.484;2023-06-14T05:31:29;4.93;;;2.47;;
41468;SDS011;27206;47.032;15.484;2023-06-14T05:33:55;5.55;;;2.60;;
41468;SDS011;27206;47.032;15.484;2023-06-14T05:36:21;6.03;;;2.60;;
41468;SDS011;27206;47.032;15.484;2023-06-14T05:38:47;5.47;;;2.45;;
41468;SDS011;27206;47.032;15.484;2023-06-14T05:41:13;5.55;;;2.55;;
41468;SDS011;27206;47.032;15.484;2023-06-14T05:43:39;4.78;;;2.42;;
41468;SDS011;27206;47.032;15.484;2023-06-14T05:46:04;4.30;;;2.20;;
41468;SDS011;27206;47.032;15.484;2023-06-14T05:48:30;7.15;;;2.83;;
41468;SDS011;27206;47.032;15.484;2023-06-14T05:50:56;4.18;;;2.50;;
41468;SDS011;27206;47.032;15.484;2023-06-14T05:53:21;4.40;;;2.70;;
41468;SDS011;27206;47.032;15.484;2023-06-14T05:55:47;3.80;;;2.45;;
41468;SDS011;27206;47.032;15.484;2023-06-14T05:58:13;4.93;;;2.40;;
41468;SDS011;27206;47.032;15.484;2023-06-14T06:00:39;5.10;;;2.90;;
41468;SDS011;27206;47.032;15.484;2023-06-14T06:03:05;4.50;;;2.58;;
41468;SDS011;27206;47.032;15.484;2023-06-14T06:05:33;5.47;;;2.60;;
41468;SDS011;27206;47.032;15.484;2023-06-14T06:07:58;4.68;;;2.65;;
41468;SDS011;27206;47.032;15.484;2023-06-14T06:10:25;4.35;;;2.40;;
41468;SDS011;27206;47.032;15.484;2023-06-14T06:12:51;4.97;;;2.83;;
41468;SDS011;27206;47.032;15.484;2023-06-14T06:15:17;8.55;;;2.40;;
41468;SDS011;27206;47.032;15.484;2023-06-14T06:17:43;5.20;;;2.65;;
41468;SDS011;27206;47.032;15.484;2023-06-14T06:20:10;6.22;;;2.72;;
41468;SDS011;27206;47.032;15.484;2023-06-14T06:22:36;8.40;;;2.78;;
41468;SDS011;27206;47.032;15.484;2023-06-14T06:25:02;5.93;;;2.83;;
41468;SDS011;27206;47.032;15.484;2023-06-14T06:27:29;7.97;;;2.90;;
41468;SDS011;27206;47.032;15.484;2023-06-14T06:29:54;6.32;;;3.00;;
41468;SDS011;27206;47.032;15.484;2023-06-14T06:32:20;9.05;;;3.22;;
41468;SDS011;27206;47.032;15.484;2023-06-14T06:34:46;6.55;;;3.05;;
41468;SDS011;27206;47.032;15.484;2023-06-14T06:37:11;7.80;;;3.10;;
41468;SDS011;27206;47.032;15.484;2023-06-14T06:39:38;8.32;;;3.33;;
41468;SDS011;27206;47.032;15.484;2023-06-14T06:42:03;6.22;;;2.88;;
41468;SDS011;27206;47.032;15.484;2023-06-14T06:44:30;4.60;;;2.47;;
41468;SDS011;27206;47.032;15.484;2023-06-14T06:46:56;5.35;;;2.92;;
41468;SDS011;27206;47.032;15.484;2023-06-14T06:49:22;8.88;;;2.88;;
41468;SDS011;27206;47.032;15.484;2023-06-14T06:52:04;5.10;;;2.67;;
41468;SDS011;27206;47.032;15.484;2023-06-14T06:54:31;5.82;;;2.67;;
41468;SDS011;27206;47.032;15.484;2023-06-14T06:56:57;5.32;;;2.70;;
41468;SDS011;27206;47.032;15.484;2023-06-14T06:59:23;4.78;;;2.60;;
41468;SDS011;27206;47.032;15.484;2023-06-14T07:01:49;7.97;;;2.90;;
41468;SDS011;27206;47.032;15.484;2023-06-14T07:04:14;5.53;;;2.78;;
41468;SDS011;27206;47.032;15.484;2023-06-14T07:06:41;7.70;;;2.92;;
41468;SDS011;27206;47.032;15.484;2023-06-14T07:09:07;7.82;;;3.25;;
41468;SDS011;27206;47.032;15.484;2023-06-14T07:11:38;5.90;;;2.88;;
41468;SDS011;27206;47.032;15.484;2023-06-14T07:14:04;4.47;;;2.40;;
41468;SDS011;27206;47.032;15.484;2023-06-14T07:16:30;4.10;;;2.45;;
41468;SDS011;27206;47.032;15.484;2023-06-14T07:18:56;6.07;;;2.95;;
41468;SDS011;27206;47.032;15.484;2023-06-14T07:21:21;5.25;;;2.70;;
41468;SDS011;27206;47.032;15.484;2023-06-14T07:23:47;6.03;;;3.15;;
41468;SDS011;27206;47.032;15.484;2023-06-14T07:26:12;5.65;;;2.90;;
41468;SDS011;27206;47.032;15.484;2023-06-14T07:28:38;6.43;;;3.00;;
41468;SDS011;27206;47.032;15.484;2023-06-14T07:31:04;6.93;;;2.70;;
41468;SDS011;27206;47.032;15.484;2023-06-14T07:33:29;6.85;;;2.88;;
41468;SDS011;27206;47.032;15.484;2023-06-14T07:35:55;6.70;;;3.20;;
41468;SDS011;27206;47.032;15.484;2023-06-14T07:38:20;7.63;;;3.38;;
41468;SDS011;27206;47.032;15.484;2023-06-14T07:40:46;4.30;;;2.58;;
41468;SDS011;27206;47.032;15.484;2023-06-14T07:43:12;4.88;;;2.88;;
41468;SDS011;27206;47.032;15.484;2023-06-14T07:45:37;4.68;;;2.72;;
41468;SDS011;27206;47.032;15.484;2023-06-14T07:48:03;5.85;;;2.75;;
41468;SDS011;27206;47.032;15.484;2023-06-14T07:50:29;6.43;;;2.95;;
41468;SDS011;27206;47.032;15.484;2023-06-14T07:52:55;6.60;;;3.03;;
41468;SDS011;27206;47.032;15.484;2023-06-14T07:55:21;5.45;;;2.70;;
41468;SDS011;27206;47.032;15.484;2023-06-14T07:57:47;5.95;;;3.00;;
41468;SDS011;27206;47.032;15.484;2023-06-14T08:00:12;9.27;;;3.17;;
41468;SDS011;27206;47.032;15.484;2023-06-14T08:02:42;5.65;;;2.70;;
41468;SDS011;27206;47.032;15.484;2023-06-14T08:05:12;5.22;;;3.10;;
41468;SDS011;27206;47.032;15.484;2023-06-14T08:07:38;5.88;;;3.10;;
41468;SDS011;27206;47.032;15.484;2023-06-14T08:10:05;6.07;;;3.08;;
41468;SDS011;27206;47.032;15.484;2023-06-14T08:12:31;5.90;;;3.45;;
41468;SDS011;27206;47.032;15.484;2023-06-14T08:14:57;6.00;;;3.30;;
41468;SDS011;27206;47.032;15.484;2023-06-14T08:17:23;7.75;;;3.22;;
41468;SDS011;27206;47.032;15.484;2023-06-14T08:19:49;5.85;;;2.80;;
41468;SDS011;27206;47.032;15.484;2023-06-14T08:22:14;5.38;;;2.72;;
41468;SDS011;27206;47.032;15.484;2023-06-14T08:24:41;5.63;;;2.88;;
41468;SDS011;27206;47.032;15.484;2023-06-14T08:27:08;6.32;;;2.90;;
41468;SDS011;27206;47.032;15.484;2023-06-14T08:29:34;5.97;;;3.08;;
41468;SDS011;27206;47.032;15.484;2023-06-14T08:31:59;6.78;;;2.63;;
41468;SDS011;27206;47.032;15.484;2023-06-14T08:34:25;4.80;;;2.95;;
41468;SDS011;27206;47.032;15.484;2023-06-14T08:36:51;5.18;;;2.63;;
41468;SDS011;27206;47.032;15.484;2023-06-14T08:39:16;8.05;;;2.97;;
41468;SDS011;27206;47.032;15.484;2023-06-14T08:41:46;5.47;;;2.72;;
41468;SDS011;27206;47.032;15.484;2023-06-14T08:44:13;7.35;;;2.83;;
41468;SDS011;27206;47.032;15.484;2023-06-14T08:46:41;5.03;;;2.90;;
41468;SDS011;27206;47.032;15.484;2023-06-14T08:49:07;5.72;;;3.53;;
41468;SDS011;27206;47.032;15.484;2023-06-14T08:51:36;5.43;;;2.95;;
41468;SDS011;27206;47.032;15.484;2023-06-14T08:54:03;4.93;;;2.83;;
41468;SDS011;27206;47.032;15.484;2023-06-14T08:56:30;4.95;;;2.95;;
41468;SDS011;27206;47.032;15.484;2023-06-14T08:58:59;6.75;;;2.97;;
41468;SDS011;27206;47.032;15.484;2023-06-14T09:01:28;6.05;;;2.92;;
41468;SDS011;27206;47.032;15.484;2023-06-14T09:03:53;5.80;;;2.90;;
41468;SDS011;27206;47.032;15.484;2023-06-14T09:06:22;4.20;;;2.70;;
41468;SDS011;27206;47.032;15.484;2023-06-14T09:08:49;4.30;;;2.35;;
41468;SDS011;27206;47.032;15.484;2023-06-14T09:11:16;4.07;;;2.13;;
41468;SDS011;27206;47.032;15.484;2023-06-14T09:13:46;7.40;;;2.70;;
41468;SDS011;27206;47.032;15.484;2023-06-14T09:16:14;5.45;;;3.20;;
41468;SDS011;27206;47.032;15.484;2023-06-14T09:18:41;6.60;;;3.83;;
41468;SDS011;27206;47.032;15.484;2023-06-14T09:21:13;4.00;;;2.40;;
41468;SDS011;27206;47.032;15.484;2023-06-14T09:23:41;5.43;;;2.78;;
41468;SDS011;27206;47.032;15.484;2023-06-14T09:26:08;5.43;;;2.85;;
41468;SDS011;27206;47.032;15.484;2023-06-14T09:28:35;6.78;;;2.90;;
41468;SDS011;27206;47.032;15.484;2023-06-14T09:31:01;4.10;;;2.33;;
41468;SDS011;27206;47.032;15.484;2023-06-14T09:33:27;4.78;;;2.80;;
41468;SDS011;27206;47.032;15.484;2023-06-14T09:35:56;6.00;;;2.75;;
41468;SDS011;27206;47.032;15.484;2023-06-14T09:38:21;5.63;;;2.60;;
41468;SDS011;27206;47.032;15.484;2023-06-14T09:40:49;5.10;;;2.90;;
41468;SDS011;27206;47.032;15.484;2023-06-14T09:43:15;5.78;;;3.10;;
41468;SDS011;27206;47.032;15.484;2023-06-14T09:45:41;5.13;;;3.15;;
41468;SDS011;27206;47.032;15.484;2023-06-14T09:48:10;7.05;;;3.55;;
41468;SDS011;27206;47.032;15.484;2023-06-14T09:50:37;5.95;;;3.45;;
41468;SDS011;27206;47.032;15.484;2023-06-14T09:53:07;6.82;;;3.60;;
41468;SDS011;27206;47.032;15.484;2023-06-14T09:55:36;5.47;;;3.33;;
41468;SDS011;27206;47.032;15.484;2023-06-14T09:58:04;6.13;;;3.63;;
41468;SDS011;27206;47.032;15.484;2023-06-14T10:00:31;5.82;;;3.28;;
41468;SDS011;27206;47.032;15.484;2023-06-14T10:03:00;5.55;;;3.58;;
41468;SDS011;27206;47.032;15.484;2023-06-14T10:05:37;6.57;;;3.58;;
41468;SDS011;27206;47.032;15.484;2023-06-14T10:08:07;6.10;;;3.65;;
41468;SDS011;27206;47.032;15.484;2023-06-14T10:10:34;7.90;;;3.42;;
41468;SDS011;27206;47.032;15.484;2023-06-14T10:13:00;5.35;;;3.30;;
41468;SDS011;27206;47.032;15.484;2023-06-14T10:15:38;6.68;;;3.70;;
41468;SDS011;27206;47.032;15.484;2023-06-14T10:21:16;6.68;;;3.75;;
41468;SDS011;27206;47.032;15.484;2023-06-14T10:23:44;5.75;;;2.97;;
41468;SDS011;27206;47.032;15.484;2023-06-14T10:26:21;5.75;;;3.13;;
41468;SDS011;27206;47.032;15.484;2023-06-14T10:28:55;5.60;;;2.97;;
41468;SDS011;27206;47.032;15.484;2023-06-14T10:31:48;6.82;;;2.67;;
41468;SDS011;27206;47.032;15.484;2023-06-14T10:34:23;8.77;;;3.00;;
41468;SDS011;27206;47.032;15.484;2023-06-14T10:37:06;4.45;;;2.78;;
41468;SDS011;27206;47.032;15.484;2023-06-14T10:39:40;5.75;;;3.05;;
41468;SDS011;27206;47.032;15.484;2023-06-14T10:42:07;3.83;;;2.47;;
41468;SDS011;27206;47.032;15.484;2023-06-14T10:44:37;4.72;;;2.63;;
41468;SDS011;27206;47.032;15.484;2023-06-14T10:49:49;5.53;;;2.38;;
41468;SDS011;27206;47.032;15.484;2023-06-14T10:52:24;5.45;;;2.35;;
41468;SDS011;27206;47.032;15.484;2023-06-14T10:57:29;3.42;;;1.73;;
41468;SDS011;27206;47.032;15.484;2023-06-14T10:59:57;3.70;;;2.00;;
41468;SDS011;27206;47.032;15.484;2023-06-14T11:05:16;4.13;;;1.90;;
41468;SDS011;27206;47.032;15.484;2023-06-14T11:11:07;5.10;;;1.90;;
41468;SDS011;27206;47.032;15.484;2023-06-14T11:13:34;3.58;;;1.90;;
41468;SDS011;27206;47.032;15.484;2023-06-14T11:16:03;3.50;;;2.08;;
41468;SDS011;27206;47.032;15.484;2023-06-14T11:18:39;38.80;;;19.42;;
41468;SDS011;27206;47.032;15.484;2023-06-14T11:21:06;18.70;;;8.75;;
41468;SDS011;27206;47.032;15.484;2023-06-14T11:23:31;6.70;;;3.28;;
41468;SDS011;27206;47.032;15.484;2023-06-14T11:25:57;83.90;;;32.35;;
41468;SDS011;27206;47.032;15.484;2023-06-14T11:28:22;148.70;;;69.35;;
41468;SDS011;27206;47.032;15.484;2023-06-14T11:30:49;59.88;;;25.17;;
41468;SDS011;27206;47.032;15.484;2023-06-14T11:33:24;15.93;;;8.02;;
41468;SDS011;27206;47.032;15.484;2023-06-14T11:35:50;6.03;;;3.70;;
41468;SDS011;27206;47.032;15.484;2023-06-14T11:38:17;4.75;;;2.65;;
41468;SDS011;27206;47.032;15.484;2023-06-14T11:40:42;6.28;;;2.47;;
41468;SDS011;27206;47.032;15.484;2023-06-14T11:43:08;5.00;;;2.60;;
41468;SDS011;27206;47.032;15.484;2023-06-14T11:45:34;4.53;;;2.58;;
41468;SDS011;27206;47.032;15.484;2023-06-14T11:48:00;3.20;;;1.90;;
41468;SDS011;27206;47.032;15.484;2023-06-14T11:50:26;4.20;;;2.30;;
41468;SDS011;27206;47.032;15.484;2023-06-14T11:52:56;5.15;;;1.85;;
41468;SDS011;27206;47.032;15.484;2023-06-14T11:55:22;3.35;;;2.13;;
41468;SDS011;27206;47.032;15.484;2023-06-14T11:57:49;3.15;;;1.80;;
41468;SDS011;27206;47.032;15.484;2023-06-14T12:00:15;3.47;;;1.65;;
41468;SDS011;27206;47.032;15.484;2023-06-14T12:02:42;3.45;;;1.77;;
41468;SDS011;27206;47.032;15.484;2023-06-14T12:05:08;3.75;;;1.90;;
41468;SDS011;27206;47.032;15.484;2023-06-14T12:07:38;3.38;;;1.73;;
41468;SDS011;27206;47.032;15.484;2023-06-14T12:10:07;5.07;;;2.25;;
41468;SDS011;27206;47.032;15.484;2023-06-14T12:12:36;6.78;;;2.42;;
41468;SDS011;27206;47.032;15.484;2023-06-14T12:15:04;6.20;;;2.10;;
41468;SDS011;27206;47.032;15.484;2023-06-14T12:17:34;3.72;;;2.05;;
41468;SDS011;27206;47.032;15.484;2023-06-14T12:20:11;3.42;;;1.92;;
41468;SDS011;27206;47.032;15.484;2023-06-14T12:22:59;3.42;;;2.03;;
41468;SDS011;27206;47.032;15.484;2023-06-14T12:25:35;3.78;;;2.00;;
41468;SDS011;27206;47.032;15.484;2023-06-14T12:28:05;2.83;;;1.70;;
41468;SDS011;27206;47.032;15.484;2023-06-14T12:30:32;4.55;;;1.98;;
41468;SDS011;27206;47.032;15.484;2023-06-14T12:32:58;3.28;;;1.90;;
41468;SDS011;27206;47.032;15.484;2023-06-14T12:35:25;5.35;;;1.90;;
41468;SDS011;27206;47.032;15.484;2023-06-14T12:37:52;4.00;;;2.28;;
41468;SDS011;27206;47.032;15.484;2023-06-14T12:40:18;3.67;;;1.95;;
41468;SDS011;27206;47.032;15.484;2023-06-14T12:42:44;3.97;;;1.92;;
41468;SDS011;27206;47.032;15.484;2023-06-14T12:45:12;4.53;;;2.15;;
41468;SDS011;27206;47.032;15.484;2023-06-14T12:47:38;3.20;;;1.92;;
41468;SDS011;27206;47.032;15.484;2023-06-14T12:50:04;3.78;;;2.00;;
41468;SDS011;27206;47.032;15.484;2023-06-14T12:52:30;3.65;;;2.00;;
41468;SDS011;27206;47.032;15.484;2023-06-14T12:54:56;4.00;;;2.25;;
41468;SDS011;27206;47.032;15.484;2023-06-14T12:57:22;4.18;;;2.35;;
41468;SDS011;27206;47.032;15.484;2023-06-14T12:59:48;5.35;;;2.13;;
41468;SDS011;27206;47.032;15.484;2023-06-14T13:02:17;3.88;;;2.10;;
41468;SDS011;27206;47.032;15.484;2023-06-14T13:04:47;5.03;;;2.08;;
41468;SDS011;27206;47.032;15.484;2023-06-14T13:07:13;3.70;;;2.20;;
41468;SDS011;27206;47.032;15.484;2023-06-14T13:09:40;3.10;;;2.03;;
41468;SDS011;27206;47.032;15.484;2023-06-14T13:12:06;3.92;;;2.03;;
41468;SDS011;27206;47.032;15.484;2023-06-14T13:14:32;3.15;;;1.80;;
41468;SDS011;27206;47.032;15.484;2023-06-14T13:16:58;4.00;;;2.20;;
41468;SDS011;27206;47.032;15.484;2023-06-14T13:19:24;3.83;;;2.03;;
41468;SDS011;27206;47.032;15.484;2023-06-14T13:21:50;5.28;;;2.55;;
41468;SDS011;27206;47.032;15.484;2023-06-14T13:24:15;3.00;;;2.00;;
41468;SDS011;27206;47.032;15.484;2023-06-14T13:26:41;4.22;;;2.45;;
41468;SDS011;27206;47.032;15.484;2023-06-14T13:29:07;4.13;;;2.25;;
41468;SDS011;27206;47.032;15.484;2023-06-14T13:31:32;5.32;;;2.00;;
41468;SDS011;27206;47.032;15.484;2023-06-14T13:33:58;5.10;;;2.28;;
41468;SDS011;27206;47.032;15.484;2023-06-14T13:36:24;3.50;;;2.00;;
41468;SDS011;27206;47.032;15.484;2023-06-14T13:38:49;3.33;;;1.90;;
41468;SDS011;27206;47.032;15.484;2023-06-14T13:41:17;2.55;;;1.67;;
41468;SDS011;27206;47.032;15.484;2023-06-14T13:43:43;3.33;;;1.98;;
41468;SDS011;27206;47.032;15.484;2023-06-14T13:46:08;3.78;;;2.20;;
41468;SDS011;27206;47.032;15.484;2023-06-14T13:48:34;4.75;;;2.15;;
41468;SDS011;27206;47.032;15.484;2023-06-14T13:51:00;5.07;;;2.28;;
41468;SDS011;27206;47.032;15.484;2023-06-14T13:53:25;4.05;;;2.42;;
41468;SDS011;27206;47.032;15.484;2023-06-14T13:55:51;8.00;;;2.22;;
41468;SDS011;27206;47.032;15.484;2023-06-14T13:58:17;4.63;;;2.15;;
41468;SDS011;27206;47.032;15.484;2023-06-14T14:00:44;3.67;;;2.17;;
41468;SDS011;27206;47.032;15.484;2023-06-14T14:03:09;3.33;;;1.95;;
41468;SDS011;27206;47.032;15.484;2023-06-14T14:05:36;4.22;;;2.17;;
41468;SDS011;27206;47.032;15.484;2023-06-14T14:08:02;4.20;;;2.13;;
41468;SDS011;27206;47.032;15.484;2023-06-14T14:10:29;3.80;;;2.30;;
41468;SDS011;27206;47.032;15.484;2023-06-14T14:12:54;3.60;;;2.10;;
41468;SDS011;27206;47.032;15.484;2023-06-14T14:15:21;3.25;;;2.10;;
41468;SDS011;27206;47.032;15.484;2023-06-14T14:17:47;4.47;;;2.40;;
41468;SDS011;27206;47.032;15.484;2023-06-14T14:20:12;3.40;;;1.98;;
41468;SDS011;27206;47.032;15.484;2023-06-14T14:22:40;3.75;;;2.05;;
41468;SDS011;27206;47.032;15.484;2023-06-14T14:25:07;5.25;;;2.40;;
41468;SDS011;27206;47.032;15.484;2023-06-14T14:27:33;4.50;;;2.22;;
41468;SDS011;27206;47.032;15.484;2023-06-14T14:29:59;3.85;;;2.15;;
41468;SDS011;27206;47.032;15.484;2023-06-14T14:32:24;3.72;;;2.10;;
41468;SDS011;27206;47.032;15.484;2023-06-14T14:34:50;4.00;;;2.03;;
41468;SDS011;27206;47.032;15.484;2023-06-14T14:37:16;4.15;;;1.98;;
41468;SDS011;27206;47.032;15.484;2023-06-14T14:39:43;4.85;;;2.35;;
41468;SDS011;27206;47.032;15.484;2023-06-14T14:42:09;4.13;;;2.28;;
41468;SDS011;27206;47.032;15.484;2023-06-14T14:44:37;3.92;;;2.10;;
41468;SDS011;27206;47.032;15.484;2023-06-14T14:47:03;5.85;;;2.30;;
41468;SDS011;27206;47.032;15.484;2023-06-14T14:49:28;4.32;;;2.22;;
41468;SDS011;27206;47.032;15.484;2023-06-14T14:51:55;4.00;;;1.85;;